sensor_id;sensor_type;location;lat;lon;timestamp;temperature;humidity
18335;DHT22;9293;49.524;10.964;2023-03-01T00:01:41;-0.60;99.90
18335;DHT22;9293;49.524;10.964;2023-03-01T00:04:09;-0.60;99.90
18335;DHT22;9293;49.524;10.964;2023-03-01T00:06:37;-0.70;99.90
18335;DHT22;9293;49.524;10.964;2023-03-01T00:09:05;-0.70;99.90
18335;DHT22;9293;49.524;10.964;2023-03-01T00:11:34;-0.70;99.90
18335;DHT22;9293;49.524;10.964;2023-03-01T00:14:02;-0.70;99.90
18335;DHT22;9293;49.524;10.964;2023-03-01T00:16:39;-0.70;99.90
18335;DHT22;9293;49.524;10.964;2023-03-01T00:19:11;-0.70;99.90
18335;DHT22;9293;49.524;10.964;2023-03-01T00:21:40;-0.70;99.90
18335;DHT22;9293;49.524;10.964;2023-03-01T00:24:08;-0.80;99.90
18335;DHT22;9293;49.524;10.964;2023-03-01T00:26:37;-0.80;99.90
18335;DHT22;9293;49.524;10.964;2023-03-01T00:29:05;-0.80;99.90
18335;DHT22;9293;49.524;10.964;2023-03-01T00:31:34;-0.80;99.90
18335;DHT22;9293;49.524;10.964;2023-03-01T00:34:04;-0.90;99.90
18335;DHT22;9293;49.524;10.964;2023-03-01T00:36:35;-0.90;99.90
18335;DHT22;9293;49.524;10.964;2023-03-01T00:39:07;-1.00;99.90
18335;DHT22;9293;49.524;10.964;2023-03-01T00:41:35;-1.00;99.90
18335;DHT22;9293;49.524;10.964;2023-03-01T00:44:03;-1.10;99.90
18335;DHT22;9293;49.524;10.964;2023-03-01T00:46:31;-1.10;99.90
18335;DHT22;9293;49.524;10.964;2023-03-01T00:49:00;-1.10;99.90
18335;DHT22;9293;49.524;10.964;2023-03-01T00:51:30;-1.10;99.90
18335;DHT22;9293;49.524;10.964;2023-03-01T00:54:00;-1.10;99.90
18335;DHT22;9293;49.524;10.964;2023-03-01T00:56:31;-1.10;99.90
18335;DHT22;9293;49.524;10.964;2023-03-01T00:59:02;-1.00;99.90
18335;DHT22;9293;49.524;10.964;2023-03-01T01:01:31;-1.00;99.90
18335;DHT22;9293;49.524;10.964;2023-03-01T01:04:11;-1.00;99.90
18335;DHT22;9293;49.524;10.964;2023-03-01T01:06:42;-1.00;99.90
18335;DHT22;9293;49.524;10.964;2023-03-01T01:09:11;-1.00;99.90
18335;DHT22;9293;49.524;10.964;2023-03-01T01:11:46;-1.00;99.90
18335;DHT22;9293;49.524;10.964;2023-03-01T01:14:15;-1.00;99.90
18335;DHT22;9293;49.524;10.964;2023-03-01T01:16:43;-1.00;99.90
18335;DHT22;9293;49.524;10.964;2023-03-01T01:19:12;-1.00;99.90
18335;DHT22;9293;49.524;10.964;2023-03-01T01:21:41;-1.00;99.90
18335;DHT22;9293;49.524;10.964;2023-03-01T01:24:12;-1.10;99.90
18335;DHT22;9293;49.524;10.964;2023-03-01T01:26:40;-1.10;99.90
18335;DHT22;9293;49.524;10.964;2023-03-01T01:29:08;-1.00;99.90
18335;DHT22;9293;49.524;10.964;2023-03-01T01:31:37;-1.00;99.90
18335;DHT22;9293;49.524;10.964;2023-03-01T01:34:08;-1.00;99.90
18335;DHT22;9293;49.524;10.964;2023-03-01T01:36:36;-1.00;99.90
18335;DHT22;9293;49.524;10.964;2023-03-01T01:39:04;-1.10;99.90
18335;DHT22;9293;49.524;10.964;2023-03-01T01:41:33;-1.20;99.90
18335;DHT22;9293;49.524;10.964;2023-03-01T01:44:23;-1.30;99.90
18335;DHT22;9293;49.524;10.964;2023-03-01T01:47:20;-1.30;99.90
18335;DHT22;9293;49.524;10.964;2023-03-01T01:49:54;-1.40;99.90
18335;DHT22;9293;49.524;10.964;2023-03-01T01:52:30;-1.40;99.90
18335;DHT22;9293;49.524;10.964;2023-03-01T01:55:08;-1.60;99.90
18335;DHT22;9293;49.524;10.964;2023-03-01T01:57:42;-1.70;99.90
18335;DHT22;9293;49.524;10.964;2023-03-01T02:00:20;-1.80;99.90
18335;DHT22;9293;49.524;10.964;2023-03-01T02:02:51;-1.70;99.90
18335;DHT22;9293;49.524;10.964;2023-03-01T02:06:03;-1.60;99.90
18335;DHT22;9293;49.524;10.964;2023-03-01T02:08:35;-1.70;99.90
18335;DHT22;9293;49.524;10.964;2023-03-01T02:11:05;-1.70;99.90
18335;DHT22;9293;49.524;10.964;2023-03-01T02:13:34;-1.70;99.90
18335;DHT22;9293;49.524;10.964;2023-03-01T02:16:08;-1.70;99.90
18335;DHT22;9293;49.524;10.964;2023-03-01T02:18:41;-1.80;99.90
18335;DHT22;9293;49.524;10.964;2023-03-01T02:24:47;-2.10;99.90
18335;DHT22;9293;49.524;10.964;2023-03-01T02:27:17;-2.10;99.90
18335;DHT22;9293;49.524;10.964;2023-03-01T02:29:49;-2.10;99.90
18335;DHT22;9293;49.524;10.964;2023-03-01T02:32:18;-2.10;99.90
18335;DHT22;9293;49.524;10.964;2023-03-01T02:34:54;-2.20;99.90
18335;DHT22;9293;49.524;10.964;2023-03-01T02:37:24;-2.20;99.90
18335;DHT22;9293;49.524;10.964;2023-03-01T02:39:59;-2.20;99.90
18335;DHT22;9293;49.524;10.964;2023-03-01T02:42:45;-2.20;99.90
18335;DHT22;9293;49.524;10.964;2023-03-01T02:45:14;-2.10;99.90
18335;DHT22;9293;49.524;10.964;2023-03-01T02:47:43;-2.10;99.90
18335;DHT22;9293;49.524;10.964;2023-03-01T02:55:32;-1.90;99.90
18335;DHT22;9293;49.524;10.964;2023-03-01T02:58:02;-1.80;99.90
18335;DHT22;9293;49.524;10.964;2023-03-01T03:00:36;-1.70;99.90
18335;DHT22;9293;49.524;10.964;2023-03-01T03:03:08;-1.70;99.90
18335;DHT22;9293;49.524;10.964;2023-03-01T03:05:36;-1.70;99.90
18335;DHT22;9293;49.524;10.964;2023-03-01T03:08:05;-1.70;99.90
18335;DHT22;9293;49.524;10.964;2023-03-01T03:10:38;-1.60;99.90
18335;DHT22;9293;49.524;10.964;2023-03-01T03:13:12;-1.60;99.90
18335;DHT22;9293;49.524;10.964;2023-03-01T03:15:43;-1.70;99.90
18335;DHT22;9293;49.524;10.964;2023-03-01T03:18:14;-1.90;99.90
18335;DHT22;9293;49.524;10.964;2023-03-01T03:20:43;-2.00;99.90
18335;DHT22;9293;49.524;10.964;2023-03-01T03:23:11;-2.00;99.90
18335;DHT22;9293;49.524;10.964;2023-03-01T03:25:40;-1.90;99.90
18335;DHT22;9293;49.524;10.964;2023-03-01T03:28:08;-1.90;99.90
18335;DHT22;9293;49.524;10.964;2023-03-01T03:30:40;-1.80;99.90
18335;DHT22;9293;49.524;10.964;2023-03-01T03:33:10;-1.70;99.90
18335;DHT22;9293;49.524;10.964;2023-03-01T03:35:48;-1.70;99.90
18335;DHT22;9293;49.524;10.964;2023-03-01T03:38:19;-1.70;99.90
18335;DHT22;9293;49.524;10.964;2023-03-01T03:41:01;-1.70;99.90
18335;DHT22;9293;49.524;10.964;2023-03-01T03:43:31;-1.70;99.90
18335;DHT22;9293;49.524;10.964;2023-03-01T03:46:00;-1.70;99.90
18335;DHT22;9293;49.524;10.964;2023-03-01T03:48:35;-1.70;99.90
18335;DHT22;9293;49.524;10.964;2023-03-01T03:51:03;-1.70;99.90
18335;DHT22;9293;49.524;10.964;2023-03-01T03:53:34;-1.70;99.90
18335;DHT22;9293;49.524;10.964;2023-03-01T03:56:02;-1.70;99.90
18335;DHT22;9293;49.524;10.964;2023-03-01T03:58:32;-1.60;99.90
18335;DHT22;9293;49.524;10.964;2023-03-01T04:01:00;-1.60;99.90
18335;DHT22;9293;49.524;10.964;2023-03-01T04:03:32;-1.60;99.90
18335;DHT22;9293;49.524;10.964;2023-03-01T04:06:01;-1.60;99.90
18335;DHT22;9293;49.524;10.964;2023-03-01T04:08:29;-1.60;99.90
18335;DHT22;9293;49.524;10.964;2023-03-01T04:11:01;-1.60;99.90
18335;DHT22;9293;49.524;10.964;2023-03-01T04:13:51;-1.70;99.90
18335;DHT22;9293;49.524;10.964;2023-03-01T04:16:20;-1.70;99.90
18335;DHT22;9293;49.524;10.964;2023-03-01T04:18:48;-1.70;99.90
18335;DHT22;9293;49.524;10.964;2023-03-01T04:21:16;-1.80;99.90
18335;DHT22;9293;49.524;10.964;2023-03-01T04:23:45;-1.80;99.90
18335;DHT22;9293;49.524;10.964;2023-03-01T04:26:12;-1.80;99.90
18335;DHT22;9293;49.524;10.964;2023-03-01T04:28:42;-1.80;99.90
18335;DHT22;9293;49.524;10.964;2023-03-01T04:31:15;-1.90;99.90
18335;DHT22;9293;49.524;10.964;2023-03-01T04:33:50;-2.00;99.90
18335;DHT22;9293;49.524;10.964;2023-03-01T04:36:20;-2.00;99.90
18335;DHT22;9293;49.524;10.964;2023-03-01T04:38:49;-2.10;99.90
18335;DHT22;9293;49.524;10.964;2023-03-01T04:41:19;-2.10;99.90
18335;DHT22;9293;49.524;10.964;2023-03-01T04:43:47;-2.10;99.90
18335;DHT22;9293;49.524;10.964;2023-03-01T04:46:19;-2.00;99.90
18335;DHT22;9293;49.524;10.964;2023-03-01T04:48:47;-2.00;99.90
18335;DHT22;9293;49.524;10.964;2023-03-01T04:51:15;-2.00;99.90
18335;DHT22;9293;49.524;10.964;2023-03-01T04:53:44;-1.90;99.90
18335;DHT22;9293;49.524;10.964;2023-03-01T04:56:13;-1.90;99.90
18335;DHT22;9293;49.524;10.964;2023-03-01T04:58:46;-1.90;99.90
18335;DHT22;9293;49.524;10.964;2023-03-01T05:01:16;-1.90;99.90
18335;DHT22;9293;49.524;10.964;2023-03-01T05:03:46;-1.90;99.90
18335;DHT22;9293;49.524;10.964;2023-03-01T05:06:17;-1.80;99.90
18335;DHT22;9293;49.524;10.964;2023-03-01T05:08:45;-1.80;99.90
18335;DHT22;9293;49.524;10.964;2023-03-01T05:11:13;-1.90;99.90
18335;DHT22;9293;49.524;10.964;2023-03-01T05:13:44;-1.80;99.90
18335;DHT22;9293;49.524;10.964;2023-03-01T05:16:15;-1.90;99.90
18335;DHT22;9293;49.524;10.964;2023-03-01T05:18:45;-1.90;99.90
18335;DHT22;9293;49.524;10.964;2023-03-01T05:21:16;-2.00;99.90
18335;DHT22;9293;49.524;10.964;2023-03-01T05:23:45;-2.00;99.90
18335;DHT22;9293;49.524;10.964;2023-03-01T05:26:16;-2.00;99.90
18335;DHT22;9293;49.524;10.964;2023-03-01T05:28:54;-2.00;99.90
18335;DHT22;9293;49.524;10.964;2023-03-01T05:31:27;-2.00;99.90
18335;DHT22;9293;49.524;10.964;2023-03-01T05:33:55;-2.00;99.90
18335;DHT22;9293;49.524;10.964;2023-03-01T05:36:23;-2.00;99.90
18335;DHT22;9293;49.524;10.964;2023-03-01T05:38:50;-2.00;99.90
18335;DHT22;9293;49.524;10.964;2023-03-01T05:41:19;-2.00;99.90
18335;DHT22;9293;49.524;10.964;2023-03-01T05:43:48;-2.00;99.90
18335;DHT22;9293;49.524;10.964;2023-03-01T05:46:16;-2.00;99.90
18335;DHT22;9293;49.524;10.964;2023-03-01T05:48:44;-2.00;99.90
18335;DHT22;9293;49.524;10.964;2023-03-01T05:51:12;-2.00;99.90
18335;DHT22;9293;49.524;10.964;2023-03-01T05:53:40;-2.00;99.90
18335;DHT22;9293;49.524;10.964;2023-03-01T05:56:08;-1.90;99.90
18335;DHT22;9293;49.524;10.964;2023-03-01T05:58:36;-1.90;99.90
18335;DHT22;9293;49.524;10.964;2023-03-01T06:01:11;-1.90;99.90
18335;DHT22;9293;49.524;10.964;2023-03-01T06:03:40;-1.90;99.90
18335;DHT22;9293;49.524;10.964;2023-03-01T06:06:08;-2.00;99.90
18335;DHT22;9293;49.524;10.964;2023-03-01T06:08:37;-2.00;99.90
18335;DHT22;9293;49.524;10.964;2023-03-01T06:11:04;-2.00;99.90
18335;DHT22;9293;49.524;10.964;2023-03-01T06:13:34;-1.90;99.90
18335;DHT22;9293;49.524;10.964;2023-03-01T06:16:06;-1.90;99.90
18335;DHT22;9293;49.524;10.964;2023-03-01T06:18:37;-1.90;99.90
18335;DHT22;9293;49.524;10.964;2023-03-01T06:21:08;-1.90;99.90
18335;DHT22;9293;49.524;10.964;2023-03-01T06:23:40;-1.90;99.90
18335;DHT22;9293;49.524;10.964;2023-03-01T06:26:08;-1.80;99.90
18335;DHT22;9293;49.524;10.964;2023-03-01T06:28:37;-1.80;99.90
18335;DHT22;9293;49.524;10.964;2023-03-01T06:31:05;-1.80;99.90
18335;DHT22;9293;49.524;10.964;2023-03-01T06:33:36;-1.80;99.90
18335;DHT22;9293;49.524;10.964;2023-03-01T06:36:04;-1.70;99.90
18335;DHT22;9293;49.524;10.964;2023-03-01T06:38:33;-1.70;99.90
18335;DHT22;9293;49.524;10.964;2023-03-01T06:41:01;-1.60;99.90
18335;DHT22;9293;49.524;10.964;2023-03-01T06:43:29;-1.50;99.90
18335;DHT22;9293;49.524;10.964;2023-03-01T06:45:57;-1.50;99.90
18335;DHT22;9293;49.524;10.964;2023-03-01T06:48:25;-1.40;99.90
18335;DHT22;9293;49.524;10.964;2023-03-01T06:50:53;-1.20;99.90
18335;DHT22;9293;49.524;10.964;2023-03-01T06:53:22;-1.00;99.90
18335;DHT22;9293;49.524;10.964;2023-03-01T06:55:57;-0.90;99.90
18335;DHT22;9293;49.524;10.964;2023-03-01T06:58:25;-0.70;99.90
18335;DHT22;9293;49.524;10.964;2023-03-01T07:01:00;-0.50;99.90
18335;DHT22;9293;49.524;10.964;2023-03-01T07:03:30;-0.20;99.90
18335;DHT22;9293;49.524;10.964;2023-03-01T07:05:55;0.10;99.90
18335;DHT22;9293;49.524;10.964;2023-03-01T07:08:23;0.30;99.90
18335;DHT22;9293;49.524;10.964;2023-03-01T07:10:58;0.30;99.90
18335;DHT22;9293;49.524;10.964;2023-03-01T07:13:26;0.50;99.90
18335;DHT22;9293;49.524;10.964;2023-03-01T07:15:54;0.80;99.90
18335;DHT22;9293;49.524;10.964;2023-03-01T07:18:22;0.80;99.90
18335;DHT22;9293;49.524;10.964;2023-03-01T07:20:50;1.20;99.90
18335;DHT22;9293;49.524;10.964;2023-03-01T07:23:18;1.50;99.90
18335;DHT22;9293;49.524;10.964;2023-03-01T07:25:54;2.10;99.90
18335;DHT22;9293;49.524;10.964;2023-03-01T07:28:23;2.40;99.90
18335;DHT22;9293;49.524;10.964;2023-03-01T07:31:04;2.60;99.90
18335;DHT22;9293;49.524;10.964;2023-03-01T07:33:35;2.70;99.90
18335;DHT22;9293;49.524;10.964;2023-03-01T07:36:05;3.10;99.90
18335;DHT22;9293;49.524;10.964;2023-03-01T07:38:35;3.40;99.90
18335;DHT22;9293;49.524;10.964;2023-03-01T07:41:03;3.30;99.90
18335;DHT22;9293;49.524;10.964;2023-03-01T07:43:32;3.40;99.90
18335;DHT22;9293;49.524;10.964;2023-03-01T07:46:00;4.00;99.90
18335;DHT22;9293;49.524;10.964;2023-03-01T07:48:30;4.20;99.90
18335;DHT22;9293;49.524;10.964;2023-03-01T07:51:03;4.40;99.90
18335;DHT22;9293;49.524;10.964;2023-03-01T07:53:35;4.20;99.90
18335;DHT22;9293;49.524;10.964;2023-03-01T07:56:10;4.90;99.90
18335;DHT22;9293;49.524;10.964;2023-03-01T07:58:43;5.80;99.90
18335;DHT22;9293;49.524;10.964;2023-03-01T08:01:13;6.60;99.90
18335;DHT22;9293;49.524;10.964;2023-03-01T08:03:42;6.90;99.90
18335;DHT22;9293;49.524;10.964;2023-03-01T08:06:12;7.00;99.90
18335;DHT22;9293;49.524;10.964;2023-03-01T08:08:44;7.50;99.90
18335;DHT22;9293;49.524;10.964;2023-03-01T08:11:14;7.80;99.90
18335;DHT22;9293;49.524;10.964;2023-03-01T08:13:47;8.00;99.90
18335;DHT22;9293;49.524;10.964;2023-03-01T08:16:19;8.10;99.90
18335;DHT22;9293;49.524;10.964;2023-03-01T08:18:47;7.50;99.90
18335;DHT22;9293;49.524;10.964;2023-03-01T08:21:17;7.30;99.90
18335;DHT22;9293;49.524;10.964;2023-03-01T08:23:45;7.20;99.90
18335;DHT22;9293;49.524;10.964;2023-03-01T08:26:17;7.80;99.90
18335;DHT22;9293;49.524;10.964;2023-03-01T08:29:00;7.90;99.90
18335;DHT22;9293;49.524;10.964;2023-03-01T08:31:37;7.80;99.90
18335;DHT22;9293;49.524;10.964;2023-03-01T08:34:10;7.80;99.90
18335;DHT22;9293;49.524;10.964;2023-03-01T08:36:41;7.90;99.90
18335;DHT22;9293;49.524;10.964;2023-03-01T08:39:14;8.20;99.90
18335;DHT22;9293;49.524;10.964;2023-03-01T08:41:43;7.80;99.90
18335;DHT22;9293;49.524;10.964;2023-03-01T08:44:14;7.80;99.90
18335;DHT22;9293;49.524;10.964;2023-03-01T08:46:46;8.30;99.90
18335;DHT22;9293;49.524;10.964;2023-03-01T08:49:19;9.00;99.90
18335;DHT22;9293;49.524;10.964;2023-03-01T08:51:49;10.00;99.90
18335;DHT22;9293;49.524;10.964;2023-03-01T08:54:21;10.00;99.90
18335;DHT22;9293;49.524;10.964;2023-03-01T08:56:49;10.60;99.90
18335;DHT22;9293;49.524;10.964;2023-03-01T08:59:20;10.50;99.90
18335;DHT22;9293;49.524;10.964;2023-03-01T09:01:48;11.10;99.90
18335;DHT22;9293;49.524;10.964;2023-03-01T09:04:17;11.70;99.90
18335;DHT22;9293;49.524;10.964;2023-03-01T09:06:45;12.40;99.10
18335;DHT22;9293;49.524;10.964;2023-03-01T09:09:17;12.80;96.60
18335;DHT22;9293;49.524;10.964;2023-03-01T09:11:46;13.10;96.90
18335;DHT22;9293;49.524;10.964;2023-03-01T09:14:14;13.50;96.20
18335;DHT22;9293;49.524;10.964;2023-03-01T09:16:42;13.70;94.70
18335;DHT22;9293;49.524;10.964;2023-03-01T09:19:10;13.90;93.30
18335;DHT22;9293;49.524;10.964;2023-03-01T09:21:39;13.90;93.50
18335;DHT22;9293;49.524;10.964;2023-03-01T09:24:13;13.60;92.20
18335;DHT22;9293;49.524;10.964;2023-03-01T09:26:41;12.30;93.90
18335;DHT22;9293;49.524;10.964;2023-03-01T09:29:09;12.50;94.00
18335;DHT22;9293;49.524;10.964;2023-03-01T09:31:38;13.20;93.20
18335;DHT22;9293;49.524;10.964;2023-03-01T09:34:07;12.80;92.30
18335;DHT22;9293;49.524;10.964;2023-03-01T09:36:35;13.10;93.10
18335;DHT22;9293;49.524;10.964;2023-03-01T09:39:04;13.40;92.60
18335;DHT22;9293;49.524;10.964;2023-03-01T09:41:49;13.90;90.60
18335;DHT22;9293;49.524;10.964;2023-03-01T09:44:54;14.30;90.20
18335;DHT22;9293;49.524;10.964;2023-03-01T09:47:28;14.60;90.20
18335;DHT22;9293;49.524;10.964;2023-03-01T09:50:16;15.00;86.50
18335;DHT22;9293;49.524;10.964;2023-03-01T09:53:12;14.50;87.50
18335;DHT22;9293;49.524;10.964;2023-03-01T09:55:48;14.60;87.60
18335;DHT22;9293;49.524;10.964;2023-03-01T09:58:38;15.10;86.40
18335;DHT22;9293;49.524;10.964;2023-03-01T10:04:32;15.30;85.20
18335;DHT22;9293;49.524;10.964;2023-03-01T10:09:42;15.20;82.80
18335;DHT22;9293;49.524;10.964;2023-03-01T10:12:16;14.70;83.70
18335;DHT22;9293;49.524;10.964;2023-03-01T10:17:47;14.60;84.50
18335;DHT22;9293;49.524;10.964;2023-03-01T10:22:44;14.90;82.40
18335;DHT22;9293;49.524;10.964;2023-03-01T10:28:16;14.50;82.10
18335;DHT22;9293;49.524;10.964;2023-03-01T10:30:44;15.20;79.10
18335;DHT22;9293;49.524;10.964;2023-03-01T10:33:26;15.80;79.70
18335;DHT22;9293;49.524;10.964;2023-03-01T10:35:58;16.00;78.40
18335;DHT22;9293;49.524;10.964;2023-03-01T10:38:26;15.80;77.30
18335;DHT22;9293;49.524;10.964;2023-03-01T10:40:59;16.00;76.30
18335;DHT22;9293;49.524;10.964;2023-03-01T10:43:49;16.50;76.10
18335;DHT22;9293;49.524;10.964;2023-03-01T10:46:31;16.40;75.60
18335;DHT22;9293;49.524;10.964;2023-03-01T10:49:14;16.30;76.30
18335;DHT22;9293;49.524;10.964;2023-03-01T10:51:45;16.20;74.80
18335;DHT22;9293;49.524;10.964;2023-03-01T10:54:18;16.00;76.70
18335;DHT22;9293;49.524;10.964;2023-03-01T10:56:54;15.90;76.00
18335;DHT22;9293;49.524;10.964;2023-03-01T10:59:39;15.50;75.60
18335;DHT22;9293;49.524;10.964;2023-03-01T11:02:17;15.30;75.70
18335;DHT22;9293;49.524;10.964;2023-03-01T11:07:55;13.10;80.50
18335;DHT22;9293;49.524;10.964;2023-03-01T11:10:29;13.30;80.70
18335;DHT22;9293;49.524;10.964;2023-03-01T11:13:18;12.90;79.70
18335;DHT22;9293;49.524;10.964;2023-03-01T11:16:06;12.60;81.10
18335;DHT22;9293;49.524;10.964;2023-03-01T11:18:34;12.70;81.60
18335;DHT22;9293;49.524;10.964;2023-03-01T11:21:15;12.30;82.30
18335;DHT22;9293;49.524;10.964;2023-03-01T11:23:49;12.60;82.40
18335;DHT22;9293;49.524;10.964;2023-03-01T11:26:17;13.00;81.20
18335;DHT22;9293;49.524;10.964;2023-03-01T11:28:52;13.30;80.50
18335;DHT22;9293;49.524;10.964;2023-03-01T11:31:23;12.50;81.10
18335;DHT22;9293;49.524;10.964;2023-03-01T11:34:15;11.60;83.30
18335;DHT22;9293;49.524;10.964;2023-03-01T11:37:00;11.60;84.10
18335;DHT22;9293;49.524;10.964;2023-03-01T11:39:51;12.30;82.10
18335;DHT22;9293;49.524;10.964;2023-03-01T11:45:35;12.40;83.80
18335;DHT22;9293;49.524;10.964;2023-03-01T11:48:46;11.80;82.80
18335;DHT22;9293;49.524;10.964;2023-03-01T11:54:37;11.50;83.50
18335;DHT22;9293;49.524;10.964;2023-03-01T12:05:24;10.90;86.10
18335;DHT22;9293;49.524;10.964;2023-03-01T12:14:01;12.20;85.10
18335;DHT22;9293;49.524;10.964;2023-03-01T12:25:12;11.60;85.10
18335;DHT22;9293;49.524;10.964;2023-03-01T12:38:49;12.50;85.80
18335;DHT22;9293;49.524;10.964;2023-03-01T12:41:48;12.40;83.80
18335;DHT22;9293;49.524;10.964;2023-03-01T12:49:54;11.90;86.10
18335;DHT22;9293;49.524;10.964;2023-03-01T12:54:56;11.50;86.20
18335;DHT22;9293;49.524;10.964;2023-03-01T12:57:51;11.30;87.40
18335;DHT22;9293;49.524;10.964;2023-03-01T13:00:42;11.50;88.10
18335;DHT22;9293;49.524;10.964;2023-03-01T13:06:35;11.70;87.20
18335;DHT22;9293;49.524;10.964;2023-03-01T13:09:40;11.80;87.80
18335;DHT22;9293;49.524;10.964;2023-03-01T13:20:56;12.30;87.60
18335;DHT22;9293;49.524;10.964;2023-03-01T13:23:28;12.40;86.90
18335;DHT22;9293;49.524;10.964;2023-03-01T13:26:05;12.10;86.70
18335;DHT22;9293;49.524;10.964;2023-03-01T13:34:03;12.10;88.80
18335;DHT22;9293;49.524;10.964;2023-03-01T13:41:55;12.20;90.30
18335;DHT22;9293;49.524;10.964;2023-03-01T13:44:54;12.50;87.40
18335;DHT22;9293;49.524;10.964;2023-03-01T13:47:22;11.90;89.90
18335;DHT22;9293;49.524;10.964;2023-03-01T13:49:57;12.10;88.80
18335;DHT22;9293;49.524;10.964;2023-03-01T13:55:00;11.70;89.80
18335;DHT22;9293;49.524;10.964;2023-03-01T13:57:36;12.10;89.80
18335;DHT22;9293;49.524;10.964;2023-03-01T14:00:24;12.60;88.60
18335;DHT22;9293;49.524;10.964;2023-03-01T14:03:03;12.10;90.10
18335;DHT22;9293;49.524;10.964;2023-03-01T14:05:33;11.90;90.40
18335;DHT22;9293;49.524;10.964;2023-03-01T14:08:14;11.70;90.60
18335;DHT22;9293;49.524;10.964;2023-03-01T14:10:59;11.90;91.30
18335;DHT22;9293;49.524;10.964;2023-03-01T14:19:21;12.00;91.10
18335;DHT22;9293;49.524;10.964;2023-03-01T14:25:01;11.90;91.60
18335;DHT22;9293;49.524;10.964;2023-03-01T14:27:36;12.50;91.70
18335;DHT22;9293;49.524;10.964;2023-03-01T14:30:21;13.40;90.30
18335;DHT22;9293;49.524;10.964;2023-03-01T14:32:59;13.00;90.40
18335;DHT22;9293;49.524;10.964;2023-03-01T14:35:32;12.70;91.00
18335;DHT22;9293;49.524;10.964;2023-03-01T14:38:13;12.70;91.10
18335;DHT22;9293;49.524;10.964;2023-03-01T14:40:52;13.00;90.50
18335;DHT22;9293;49.524;10.964;2023-03-01T14:43:33;12.50;90.70
18335;DHT22;9293;49.524;10.964;2023-03-01T14:46:51;12.60;90.80
18335;DHT22;9293;49.524;10.964;2023-03-01T14:49:33;13.00;90.70
18335;DHT22;9293;49.524;10.964;2023-03-01T14:52:23;12.50;90.80
18335;DHT22;9293;49.524;10.964;2023-03-01T14:54:58;12.30;91.50
18335;DHT22;9293;49.524;10.964;2023-03-01T14:57:35;12.70;91.10
18335;DHT22;9293;49.524;10.964;2023-03-01T15:00:05;12.90;91.20
18335;DHT22;9293;49.524;10.964;2023-03-01T15:02:42;12.50;91.00
18335;DHT22;9293;49.524;10.964;2023-03-01T15:05:14;12.30;91.30
18335;DHT22;9293;49.524;10.964;2023-03-01T15:07:44;12.10;91.40
18335;DHT22;9293;49.524;10.964;2023-03-01T15:10:26;11.80;92.10
18335;DHT22;9293;49.524;10.964;2023-03-01T15:13:13;12.10;92.00
18335;DHT22;9293;49.524;10.964;2023-03-01T15:15:46;11.90;91.70
18335;DHT22;9293;49.524;10.964;2023-03-01T15:18:25;11.70;92.50
18335;DHT22;9293;49.524;10.964;2023-03-01T15:21:08;12.10;91.80
18335;DHT22;9293;49.524;10.964;2023-03-01T15:23:39;12.50;91.40
18335;DHT22;9293;49.524;10.964;2023-03-01T15:26:40;12.50;91.30
18335;DHT22;9293;49.524;10.964;2023-03-01T15:29:17;12.70;91.30
18335;DHT22;9293;49.524;10.964;2023-03-01T15:32:04;13.50;90.80
18335;DHT22;9293;49.524;10.964;2023-03-01T15:34:36;14.20;89.60
18335;DHT22;9293;49.524;10.964;2023-03-01T15:37:32;14.50;88.60
18335;DHT22;9293;49.524;10.964;2023-03-01T15:39:56;14.40;88.40
18335;DHT22;9293;49.524;10.964;2023-03-01T15:47:50;12.30;91.30
18335;DHT22;9293;49.524;10.964;2023-03-01T15:52:51;11.60;92.00
18335;DHT22;9293;49.524;10.964;2023-03-01T15:55:23;11.20;92.60
18335;DHT22;9293;49.524;10.964;2023-03-01T16:00:30;10.40;93.60
18335;DHT22;9293;49.524;10.964;2023-03-01T16:02:59;10.10;93.90
18335;DHT22;9293;49.524;10.964;2023-03-01T16:05:30;9.50;94.50
18335;DHT22;9293;49.524;10.964;2023-03-01T16:08:00;9.20;95.10
18335;DHT22;9293;49.524;10.964;2023-03-01T16:10:30;9.00;95.60
18335;DHT22;9293;49.524;10.964;2023-03-01T16:12:59;8.90;95.70
18335;DHT22;9293;49.524;10.964;2023-03-01T16:15:31;8.80;96.20
18335;DHT22;9293;49.524;10.964;2023-03-01T16:18:00;8.60;96.50
18335;DHT22;9293;49.524;10.964;2023-03-01T16:20:28;8.50;96.80
18335;DHT22;9293;49.524;10.964;2023-03-01T16:23:05;8.40;97.00
18335;DHT22;9293;49.524;10.964;2023-03-01T16:25:35;8.20;97.30
18335;DHT22;9293;49.524;10.964;2023-03-01T16:28:03;8.30;97.60
18335;DHT22;9293;49.524;10.964;2023-03-01T16:30:39;8.20;97.90
18335;DHT22;9293;49.524;10.964;2023-03-01T16:33:07;8.10;97.90
18335;DHT22;9293;49.524;10.964;2023-03-01T16:35:56;8.00;98.30
18335;DHT22;9293;49.524;10.964;2023-03-01T16:38:26;8.00;98.50
18335;DHT22;9293;49.524;10.964;2023-03-01T16:40:56;7.90;98.70
18335;DHT22;9293;49.524;10.964;2023-03-01T16:43:24;7.80;99.00
18335;DHT22;9293;49.524;10.964;2023-03-01T16:45:57;7.70;99.10
18335;DHT22;9293;49.524;10.964;2023-03-01T16:48:28;7.50;99.50
18335;DHT22;9293;49.524;10.964;2023-03-01T16:51:00;7.40;99.90
18335;DHT22;9293;49.524;10.964;2023-03-01T16:53:29;7.20;99.90
18335;DHT22;9293;49.524;10.964;2023-03-01T16:56:02;7.10;99.90
18335;DHT22;9293;49.524;10.964;2023-03-01T16:58:31;7.10;99.90
18335;DHT22;9293;49.524;10.964;2023-03-01T17:01:08;7.00;99.90
18335;DHT22;9293;49.524;10.964;2023-03-01T17:03:37;7.00;99.90
18335;DHT22;9293;49.524;10.964;2023-03-01T17:06:11;6.90;99.90
18335;DHT22;9293;49.524;10.964;2023-03-01T17:08:40;6.80;99.90
18335;DHT22;9293;49.524;10.964;2023-03-01T17:11:11;6.80;99.90
18335;DHT22;9293;49.524;10.964;2023-03-01T17:13:40;6.70;99.90
18335;DHT22;9293;49.524;10.964;2023-03-01T17:16:10;6.60;99.90
18335;DHT22;9293;49.524;10.964;2023-03-01T17:18:39;6.50;99.90
18335;DHT22;9293;49.524;10.964;2023-03-01T17:21:07;6.40;99.90
18335;DHT22;9293;49.524;10.964;2023-03-01T17:23:37;6.30;99.90
18335;DHT22;9293;49.524;10.964;2023-03-01T17:26:06;6.20;99.90
18335;DHT22;9293;49.524;10.964;2023-03-01T17:28:36;6.20;99.90
18335;DHT22;9293;49.524;10.964;2023-03-01T17:31:05;6.10;99.90
18335;DHT22;9293;49.524;10.964;2023-03-01T17:33:34;6.20;99.90
18335;DHT22;9293;49.524;10.964;2023-03-01T17:36:12;6.20;99.90
18335;DHT22;9293;49.524;10.964;2023-03-01T17:38:40;6.10;99.90
18335;DHT22;9293;49.524;10.964;2023-03-01T17:41:09;6.00;99.90
18335;DHT22;9293;49.524;10.964;2023-03-01T17:43:39;5.90;99.90
18335;DHT22;9293;49.524;10.964;2023-03-01T17:46:06;5.80;99.90
18335;DHT22;9293;49.524;10.964;2023-03-01T17:48:35;5.80;99.90
18335;DHT22;9293;49.524;10.964;2023-03-01T17:51:08;5.80;99.90
18335;DHT22;9293;49.524;10.964;2023-03-01T17:53:37;5.70;99.90
18335;DHT22;9293;49.524;10.964;2023-03-01T17:56:05;5.60;99.90
18335;DHT22;9293;49.524;10.964;2023-03-01T17:58:34;5.60;99.90
18335;DHT22;9293;49.524;10.964;2023-03-01T18:01:17;5.60;99.90
18335;DHT22;9293;49.524;10.964;2023-03-01T18:03:45;5.60;99.90
18335;DHT22;9293;49.524;10.964;2023-03-01T18:06:17;5.60;99.90
18335;DHT22;9293;49.524;10.964;2023-03-01T18:08:46;5.50;99.90
18335;DHT22;9293;49.524;10.964;2023-03-01T18:11:17;5.40;99.90